createdAt,value
2022-09-05T00:00:50.201Z,15.0
2022-09-05T00:02:50.835Z,15.0
2022-09-05T00:04:50.741Z,15.0
2022-09-05T00:06:50.105Z,14.9
2022-09-05T00:08:50.419Z,14.9
2022-09-05T00:11:40.135Z,15.0
2022-09-05T00:13:08.342Z,14.9
2022-09-05T00:15:18.845Z,14.9
2022-09-05T00:16:50.417Z,14.9
2022-09-05T00:21:20.408Z,14.9
2022-09-05T00:23:15.490Z,14.9
2022-09-05T00:24:24.043Z,14.8
2022-09-05T00:25:30.930Z,14.8
2022-09-05T00:26:51.242Z,14.8
2022-09-05T00:28:50.648Z,14.8
2022-09-05T00:31:52.096Z,14.8
2022-09-05T00:32:51.013Z,14.8
2022-09-05T00:34:50.070Z,14.8
2022-09-05T00:36:50.601Z,14.8
2022-09-05T00:38:50.765Z,14.8
2022-09-05T00:40:50.799Z,14.8
2022-09-05T00:42:50.877Z,14.8
2022-09-05T00:44:50.810Z,14.8
2022-09-05T00:46:50.607Z,14.8
2022-09-05T00:48:50.948Z,14.8
2022-09-05T00:50:50.202Z,14.8
2022-09-05T00:53:08.105Z,14.8
2022-09-05T00:54:50.719Z,14.7
2022-09-05T00:56:50.268Z,14.7
2022-09-05T00:58:50.487Z,14.7
2022-09-05T01:00:49.947Z,14.8
2022-09-05T01:02:52.969Z,14.7
2022-09-05T01:04:50.907Z,14.7
2022-09-05T01:06:50.490Z,14.7
2022-09-05T01:08:50.701Z,14.7
2022-09-05T01:10:50.168Z,14.7
2022-09-05T01:12:53.591Z,14.7
2022-09-05T01:14:50.596Z,14.7
2022-09-05T01:16:50.382Z,14.6
2022-09-05T01:18:50.613Z,14.6
2022-09-05T01:20:50.452Z,14.6
2022-09-05T01:22:50.422Z,14.6
2022-09-05T01:24:50.471Z,14.6
2022-09-05T01:26:50.027Z,14.5
2022-09-05T01:29:19.271Z,14.5
2022-09-05T01:30:50.220Z,14.5
2022-09-05T01:32:55.342Z,14.5
2022-09-05T01:34:50.880Z,14.4
2022-09-05T01:36:50.590Z,14.4
2022-09-05T01:39:47.613Z,14.4
2022-09-05T01:41:19.559Z,14.3
2022-09-05T01:42:50.774Z,14.3
2022-09-05T01:44:50.922Z,14.3
2022-09-05T01:46:52.607Z,14.2
2022-09-05T01:48:50.625Z,14.2
2022-09-05T01:50:51.984Z,14.2
2022-09-05T01:53:06.380Z,14.2
2022-09-05T01:54:50.969Z,14.1
2022-09-05T01:56:50.616Z,14.1
2022-09-05T01:58:50.754Z,14.1
2022-09-05T02:00:50.771Z,14.1
2022-09-05T02:02:51.587Z,14.1
2022-09-05T02:04:50.121Z,14.0
2022-09-05T02:06:50.407Z,14.0
2022-09-05T02:08:50.731Z,14.0
2022-09-05T02:10:49.989Z,14.0
2022-09-05T02:13:03.744Z,14.0
2022-09-05T02:14:50.723Z,14.0
2022-09-05T02:16:50.022Z,14.0
2022-09-05T02:18:50.333Z,14.0
2022-09-05T02:20:50.605Z,14.0
2022-09-05T02:22:50.832Z,14.0
2022-09-05T02:26:00.891Z,14.0
2022-09-05T02:26:50.761Z,14.0
2022-09-05T02:28:50.034Z,14.0
2022-09-05T02:31:20.895Z,14.0
2022-09-05T02:32:50.227Z,13.9
2022-09-05T02:34:50.827Z,13.9
2022-09-05T02:36:50.246Z,13.9
2022-09-05T02:43:19.382Z,13.8
2022-09-05T02:45:05.241Z,13.8
2022-09-05T02:45:05.259Z,13.8
2022-09-05T02:45:25.211Z,13.8
2022-09-05T02:46:51.807Z,13.8
2022-09-05T02:48:50.120Z,13.8
2022-09-05T02:53:21.770Z,13.8
2022-09-05T02:57:30.638Z,13.8
2022-09-05T02:57:32.262Z,13.8
2022-09-05T02:57:47.760Z,13.8
2022-09-05T02:59:10.914Z,13.8
2022-09-05T03:00:51.499Z,13.8
2022-09-05T03:02:50.807Z,13.8
2022-09-05T03:05:05.293Z,13.8
2022-09-05T03:06:50.577Z,13.7
2022-09-05T03:09:08.110Z,13.7
2022-09-05T03:10:55.400Z,13.7
2022-09-05T03:12:50.563Z,13.7
2022-09-05T03:14:50.651Z,13.7
2022-09-05T03:16:50.426Z,13.7
2022-09-05T03:18:50.368Z,13.7
2022-09-05T03:20:50.612Z,13.6
2022-09-05T03:22:50.666Z,13.6
2022-09-05T03:24:56.665Z,13.6
2022-09-05T03:26:50.698Z,13.6
2022-09-05T03:28:50.739Z,13.6
2022-09-05T03:30:51.215Z,13.5
2022-09-05T03:32:50.422Z,13.5
2022-09-05T03:34:50.347Z,13.5
2022-09-05T03:36:50.772Z,13.5
2022-09-05T03:38:50.839Z,13.4
2022-09-05T03:40:50.804Z,13.4
2022-09-05T03:42:54.862Z,13.4
2022-09-05T03:44:50.787Z,13.4
2022-09-05T03:46:50.300Z,13.4
2022-09-05T03:48:50.622Z,13.4
2022-09-05T03:53:29.490Z,13.3
2022-09-05T03:57:09.060Z,13.3
2022-09-05T03:57:21.962Z,13.3
2022-09-05T03:57:31.992Z,13.3
2022-09-05T03:58:58.674Z,13.2
2022-09-05T04:02:13.826Z,13.2
2022-09-05T04:06:44.237Z,13.2
2022-09-05T04:08:13.104Z,13.2
2022-09-05T04:08:13.131Z,13.2
2022-09-05T04:08:52.560Z,13.1
2022-09-05T04:10:52.143Z,13.1
2022-09-05T04:12:50.711Z,13.1
2022-09-05T04:14:49.986Z,13.1
2022-09-05T04:16:50.677Z,13.1
2022-09-05T04:18:50.021Z,13.0
2022-09-05T04:20:50.012Z,13.0
2022-09-05T04:22:50.290Z,13.0
2022-09-05T04:24:50.404Z,13.0
2022-09-05T04:26:50.699Z,13.0
2022-09-05T04:28:54.344Z,13.0
2022-09-05T04:30:50.440Z,13.0
2022-09-05T04:32:55.221Z,13.0
2022-09-05T04:34:51.647Z,13.0
2022-09-05T04:36:50.140Z,13.0
2022-09-05T04:38:50.090Z,13.0
2022-09-05T04:40:50.507Z,13.0
2022-09-05T04:42:50.455Z,13.0
2022-09-05T04:44:56.383Z,13.0
2022-09-05T04:46:53.777Z,13.0
2022-09-05T04:48:51.522Z,13.0
2022-09-05T04:50:50.379Z,13.0
2022-09-05T04:52:50.469Z,13.0
2022-09-05T04:54:50.491Z,13.0
2022-09-05T04:56:50.013Z,13.0
2022-09-05T05:00:07.622Z,13.0
2022-09-05T05:05:58.958Z,13.0
2022-09-05T05:06:06.411Z,13.0
2022-09-05T05:06:06.894Z,13.0
2022-09-05T05:06:50.665Z,13.0
2022-09-05T05:08:50.654Z,13.0
2022-09-05T05:14:58.568Z,13.1
2022-09-05T05:15:46.870Z,13.0
2022-09-05T05:18:04.666Z,13.1
2022-09-05T05:18:04.837Z,13.2
2022-09-05T05:19:17.147Z,13.2
2022-09-05T05:20:50.247Z,13.2
2022-09-05T05:22:51.162Z,13.2
2022-09-05T05:24:50.382Z,13.2
2022-09-05T05:26:57.645Z,13.3
2022-09-05T05:28:50.628Z,13.3
2022-09-05T05:31:02.216Z,13.3
2022-09-05T05:32:50.533Z,13.3
2022-09-05T05:34:50.293Z,13.4
2022-09-05T05:36:50.555Z,13.4
2022-09-05T05:38:50.722Z,13.4
2022-09-05T05:40:51.843Z,13.5
2022-09-05T05:42:50.024Z,13.6
2022-09-05T05:44:55.164Z,13.6
2022-09-05T05:46:50.568Z,13.7
2022-09-05T05:48:57.912Z,13.7
2022-09-05T05:50:49.963Z,13.8
2022-09-05T05:52:50.815Z,13.8
2022-09-05T05:55:28.521Z,14.0
2022-09-05T05:56:49.996Z,14.0
2022-09-05T05:58:50.226Z,14.2
2022-09-05T06:00:52.475Z,14.2
2022-09-05T06:03:26.106Z,14.2
2022-09-05T06:04:50.714Z,14.4
2022-09-05T06:06:50.894Z,14.5
2022-09-05T06:11:21.996Z,14.6
2022-09-05T06:14:53.370Z,14.6
2022-09-05T06:14:54.673Z,14.8
2022-09-05T06:15:14.201Z,14.9
2022-09-05T06:16:50.619Z,15.0
2022-09-05T06:18:50.854Z,15.0
2022-09-05T06:22:08.011Z,15.0
2022-09-05T06:22:50.771Z,15.3
2022-09-05T06:24:58.557Z,15.3
2022-09-05T06:26:50.581Z,15.4
2022-09-05T06:28:50.627Z,15.4
2022-09-05T06:31:29.642Z,15.5
2022-09-05T06:32:59.020Z,15.6
2022-09-05T06:34:50.574Z,15.6
2022-09-05T06:36:50.174Z,15.8
2022-09-05T06:38:50.244Z,15.9
2022-09-05T06:40:50.295Z,16.0
2022-09-05T06:42:50.525Z,16.1
2022-09-05T06:44:50.025Z,16.1
2022-09-05T06:47:23.137Z,16.2
2022-09-05T06:49:28.622Z,16.4
2022-09-05T06:51:09.513Z,16.4
2022-09-05T06:52:50.215Z,16.4
2022-09-05T06:55:00.556Z,16.5
2022-09-05T06:56:50.803Z,16.6
2022-09-05T06:58:50.897Z,16.7
2022-09-05T07:00:50.249Z,16.9
2022-09-05T07:03:01.961Z,16.9
2022-09-05T07:05:24.329Z,17.0
2022-09-05T07:07:06.886Z,17.0
2022-09-05T07:08:52.915Z,17.2
2022-09-05T07:10:50.034Z,17.2
2022-09-05T07:12:50.014Z,17.2
2022-09-05T07:14:49.982Z,17.3
2022-09-05T07:16:50.443Z,17.3
2022-09-05T07:18:50.299Z,17.4
2022-09-05T07:21:26.196Z,17.4
2022-09-05T07:22:50.082Z,17.4
2022-09-05T07:24:56.634Z,17.5
2022-09-05T07:26:55.314Z,17.6
2022-09-05T07:28:52.121Z,17.7
2022-09-05T07:30:50.072Z,17.8
2022-09-05T07:32:49.999Z,17.8
2022-09-05T07:34:50.310Z,18.0
2022-09-05T07:37:16.319Z,18.0
2022-09-05T07:39:28.596Z,18.2
2022-09-05T07:40:50.541Z,18.2
2022-09-05T07:43:10.776Z,18.2
2022-09-05T07:44:50.374Z,18.4
2022-09-05T07:46:50.599Z,18.5
2022-09-05T07:48:50.425Z,18.6
2022-09-05T07:53:24.447Z,18.7
2022-09-05T07:55:49.325Z,18.7
2022-09-05T07:56:57.443Z,18.8
2022-09-05T07:57:25.261Z,18.9
2022-09-05T07:58:50.984Z,19.0
2022-09-05T08:00:50.351Z,19.1
2022-09-05T08:02:55.491Z,19.1
2022-09-05T08:04:51.196Z,19.2
2022-09-05T08:07:48.554Z,19.4
2022-09-05T08:09:22.209Z,19.4
2022-09-05T08:11:24.760Z,19.4
2022-09-05T08:13:23.363Z,19.6
2022-09-05T08:14:50.505Z,19.7
2022-09-05T08:16:51.130Z,19.8
2022-09-05T08:18:50.585Z,19.8
2022-09-05T08:20:50.797Z,19.9
2022-09-05T08:22:53.141Z,20.1
2022-09-05T08:24:50.204Z,20.2
2022-09-05T08:26:50.415Z,20.3
2022-09-05T08:28:50.590Z,20.3
2022-09-05T08:30:50.554Z,20.4
2022-09-05T08:33:10.164Z,20.6
2022-09-05T08:34:50.808Z,20.7
2022-09-05T08:36:50.884Z,20.8
2022-09-05T08:38:50.120Z,20.8
2022-09-05T08:40:50.042Z,21.0
2022-09-05T08:43:42.925Z,21.0
2022-09-05T08:46:38.794Z,21.2
2022-09-05T08:46:52.750Z,21.2
2022-09-05T08:48:53.834Z,21.2
2022-09-05T08:50:50.604Z,21.4
2022-09-05T08:52:50.589Z,21.5
2022-09-05T08:55:07.787Z,21.6
2022-09-05T08:56:50.252Z,21.7
2022-09-05T08:59:27.368Z,21.8
2022-09-05T09:01:04.893Z,21.8
2022-09-05T09:02:51.113Z,22.0
2022-09-05T09:05:03.268Z,22.1
2022-09-05T09:07:47.812Z,22.2
2022-09-05T09:08:50.074Z,22.3
2022-09-05T09:10:50.039Z,22.3
2022-09-05T09:12:50.906Z,22.4
2022-09-05T09:14:50.823Z,22.5
2022-09-05T09:16:50.729Z,22.5
2022-09-05T09:18:50.673Z,22.6
2022-09-05T09:20:50.679Z,22.6
2022-09-05T09:22:50.722Z,22.7
2022-09-05T09:25:17.317Z,22.7
2022-09-05T09:26:50.526Z,22.8
2022-09-05T09:28:52.593Z,22.9
2022-09-05T09:30:57.997Z,23.0
2022-09-05T09:32:50.201Z,23.1
2022-09-05T09:34:53.183Z,23.1
2022-09-05T09:36:50.312Z,23.2
2022-09-05T09:38:50.274Z,23.3
2022-09-05T09:41:03.505Z,23.4
2022-09-05T09:42:50.013Z,23.4
2022-09-05T09:44:50.974Z,23.4
2022-09-05T09:46:51.201Z,23.5
2022-09-05T09:48:52.035Z,23.6
2022-09-05T09:51:01.070Z,23.6
2022-09-05T09:52:50.016Z,23.6
2022-09-05T09:54:51.929Z,23.7
2022-09-05T09:56:50.391Z,23.8
2022-09-05T09:58:50.229Z,23.8
2022-09-05T10:00:50.076Z,23.9
2022-09-05T10:04:31.488Z,23.9
2022-09-05T10:08:34.593Z,24.0
2022-09-05T10:10:37.166Z,24.0
2022-09-05T10:10:40.867Z,24.1
2022-09-05T10:11:48.478Z,24.1
2022-09-05T10:13:09.363Z,24.2
2022-09-05T10:14:51.601Z,24.3
2022-09-05T10:16:53.807Z,24.4
2022-09-05T10:18:50.021Z,24.4
2022-09-05T10:21:17.791Z,24.5
2022-09-05T10:22:49.995Z,24.5
2022-09-05T10:24:51.506Z,24.6
2022-09-05T10:26:50.587Z,24.6
2022-09-05T10:28:50.309Z,24.6
2022-09-05T10:31:50.014Z,24.6
2022-09-05T10:35:11.891Z,24.8
2022-09-05T10:35:23.442Z,24.8
2022-09-05T10:36:52.813Z,24.9
2022-09-05T10:38:50.740Z,24.9
2022-09-05T10:41:22.899Z,25.0
2022-09-05T10:43:01.705Z,25.0
2022-09-05T10:44:50.687Z,25.0
2022-09-05T10:46:52.778Z,25.1
2022-09-05T10:48:53.971Z,25.2
2022-09-05T10:50:50.837Z,25.2
2022-09-05T10:52:50.638Z,25.2
2022-09-05T10:55:15.571Z,25.4
2022-09-05T10:56:50.740Z,25.4
2022-09-05T10:59:54.221Z,25.6
2022-09-05T11:02:25.349Z,25.6
2022-09-05T11:02:58.675Z,25.6
2022-09-05T11:04:51.872Z,25.7
2022-09-05T11:06:50.382Z,25.8
2022-09-05T11:08:50.207Z,25.8
2022-09-05T11:10:50.090Z,25.9
2022-09-05T11:12:58.249Z,25.9
2022-09-05T11:14:50.212Z,26.0
2022-09-05T11:16:50.830Z,26.0
2022-09-05T11:18:57.740Z,26.0
2022-09-05T11:20:49.932Z,26.0
2022-09-05T11:22:50.867Z,26.0
2022-09-05T11:24:50.705Z,26.0
2022-09-05T11:27:24.071Z,26.0
2022-09-05T11:29:01.332Z,26.0
2022-09-05T11:30:50.314Z,25.9
2022-09-05T11:37:58.410Z,25.9
2022-09-05T11:39:49.435Z,26.0
2022-09-05T11:39:49.775Z,26.0
2022-09-05T11:40:01.239Z,26.0
2022-09-05T11:41:14.218Z,26.1
2022-09-05T11:42:49.982Z,26.1
2022-09-05T11:44:50.875Z,26.2
2022-09-05T11:46:58.394Z,26.2
2022-09-05T11:48:54.129Z,26.2
2022-09-05T11:50:50.117Z,26.3
2022-09-05T11:52:50.062Z,26.3
2022-09-05T11:54:50.404Z,26.3
2022-09-05T11:56:50.727Z,26.3
2022-09-05T11:58:51.109Z,26.3
2022-09-05T12:01:36.886Z,26.3
2022-09-05T12:02:52.555Z,26.3
2022-09-05T12:05:48.064Z,26.3
2022-09-05T12:06:50.452Z,26.4
2022-09-05T12:08:53.819Z,26.4
2022-09-05T12:10:50.780Z,26.4
2022-09-05T12:12:50.874Z,26.4
2022-09-05T12:14:55.989Z,26.5
2022-09-05T12:16:50.578Z,26.5
2022-09-05T12:18:51.767Z,26.6
2022-09-05T12:20:50.416Z,26.8
2022-09-05T12:22:50.420Z,26.9
2022-09-05T12:25:25.578Z,26.9
2022-09-05T12:27:37.842Z,26.9
2022-09-05T12:29:28.234Z,26.9
2022-09-05T12:31:58.930Z,26.9
2022-09-05T12:35:46.995Z,26.9
2022-09-05T12:36:03.123Z,26.9
2022-09-05T12:40:25.395Z,27.0
2022-09-05T12:40:38.272Z,27.1
2022-09-05T12:41:39.829Z,27.3
2022-09-05T12:43:42.533Z,27.3
2022-09-05T12:44:53.558Z,27.3
2022-09-05T12:46:50.812Z,27.5
2022-09-05T12:48:50.021Z,27.6
2022-09-05T12:50:50.010Z,27.7
2022-09-05T12:52:49.941Z,27.7
2022-09-05T12:54:57.425Z,27.8
2022-09-05T12:58:36.004Z,27.8
2022-09-05T13:01:19.072Z,28.0
2022-09-05T13:03:09.964Z,28.1
2022-09-05T13:03:27.390Z,28.1
2022-09-05T13:05:04.105Z,28.2
2022-09-05T13:06:50.289Z,28.3
2022-09-05T13:09:00.612Z,28.4
2022-09-05T13:14:51.001Z,28.4
2022-09-05T13:14:51.267Z,28.5
2022-09-05T13:15:23.481Z,28.6
2022-09-05T13:16:50.576Z,28.6
2022-09-05T13:18:50.697Z,28.6
2022-09-05T13:20:50.544Z,28.6
2022-09-05T13:22:50.339Z,28.6
2022-09-05T13:24:50.248Z,28.7
2022-09-05T13:26:50.343Z,28.7
2022-09-05T13:29:11.153Z,28.8
2022-09-05T13:34:42.826Z,28.8
2022-09-05T13:37:56.930Z,28.9
2022-09-05T13:37:57.824Z,28.8
2022-09-05T13:38:09.757Z,28.9
2022-09-05T13:38:53.354Z,28.9
2022-09-05T13:40:51.283Z,29.0
2022-09-05T13:42:50.408Z,29.0
2022-09-05T13:44:50.402Z,29.0
2022-09-05T13:46:59.531Z,29.0
2022-09-05T13:49:26.326Z,28.8
2022-09-05T13:50:50.684Z,28.8
2022-09-05T13:52:50.735Z,28.8
2022-09-05T13:54:52.233Z,28.8
2022-09-05T13:56:50.337Z,28.8
2022-09-05T13:58:57.962Z,28.8
2022-09-05T14:00:49.949Z,28.7
2022-09-05T14:03:38.519Z,28.7
2022-09-05T14:05:17.667Z,28.7
2022-09-05T14:06:49.979Z,28.6
2022-09-05T14:09:37.733Z,28.6
2022-09-05T14:10:50.237Z,28.7
2022-09-05T14:12:56.334Z,28.6
2022-09-05T14:15:14.260Z,28.6
2022-09-05T14:16:55.409Z,28.7
2022-09-05T14:18:52.997Z,28.7
2022-09-05T14:20:50.814Z,28.7
2022-09-05T14:22:55.536Z,28.7
2022-09-05T14:25:00.635Z,28.8
2022-09-05T14:26:50.814Z,28.6
2022-09-05T14:28:50.014Z,28.6
2022-09-05T14:33:22.526Z,28.6
2022-09-05T14:37:37.924Z,28.6
2022-09-05T14:37:38.216Z,28.6
2022-09-05T14:37:47.319Z,28.6
2022-09-05T14:38:51.667Z,28.6
2022-09-05T14:40:50.965Z,28.6
2022-09-05T14:42:50.274Z,28.5
2022-09-05T14:44:50.264Z,28.4
2022-09-05T14:46:50.863Z,28.4
2022-09-05T14:48:53.939Z,28.4
2022-09-05T14:50:50.056Z,28.3
2022-09-05T14:52:51.012Z,28.3
2022-09-05T14:55:20.874Z,28.2
2022-09-05T14:57:35.651Z,28.2
2022-09-05T15:02:46.576Z,27.9
2022-09-05T15:02:46.735Z,28.0
2022-09-05T15:03:06.600Z,27.8
2022-09-05T15:04:50.561Z,27.8
2022-09-05T15:06:50.897Z,27.7
2022-09-05T15:11:15.268Z,27.6
2022-09-05T15:11:32.312Z,27.5
2022-09-05T15:13:00.994Z,27.4
2022-09-05T15:14:50.901Z,27.4
2022-09-05T15:16:50.805Z,27.4
2022-09-05T15:18:50.077Z,27.3
2022-09-05T15:20:49.940Z,27.2
2022-09-05T15:22:58.370Z,27.1
2022-09-05T15:24:50.534Z,27.1
2022-09-05T15:26:54.232Z,27.0
2022-09-05T15:28:50.242Z,27.0
2022-09-05T15:30:50.971Z,26.9
2022-09-05T15:32:51.379Z,26.8
2022-09-05T15:34:50.600Z,26.8
2022-09-05T15:36:50.834Z,26.7
2022-09-05T15:39:11.715Z,26.6
2022-09-05T15:40:50.019Z,26.6
2022-09-05T15:42:50.020Z,26.6
2022-09-05T15:45:11.195Z,26.6
2022-09-05T15:46:50.415Z,26.6
2022-09-05T15:48:50.927Z,26.6
2022-09-05T15:50:50.863Z,26.6
2022-09-05T15:52:56.333Z,26.6
2022-09-05T15:54:50.257Z,26.6
2022-09-05T15:56:50.514Z,26.6
2022-09-05T15:58:55.452Z,26.6
2022-09-05T16:00:52.626Z,26.6
2022-09-05T16:04:16.952Z,26.6
2022-09-05T16:09:21.865Z,26.6
2022-09-05T16:10:32.751Z,26.5
2022-09-05T16:10:44.466Z,26.5
2022-09-05T16:11:51.458Z,26.5
2022-09-05T16:12:50.211Z,26.4
2022-09-05T16:16:20.177Z,26.4
2022-09-05T16:19:29.435Z,26.4
2022-09-05T16:23:21.591Z,26.3
2022-09-05T16:23:21.835Z,26.3
2022-09-05T16:23:38.992Z,26.2
2022-09-05T16:25:01.265Z,26.2
2022-09-05T16:26:50.904Z,26.2
2022-09-05T16:28:49.994Z,26.1
2022-09-05T16:30:50.165Z,26.1
2022-09-05T16:32:52.166Z,26.1
2022-09-05T16:34:50.851Z,26.0
2022-09-05T16:37:09.448Z,26.0
2022-09-05T16:38:51.080Z,25.9
2022-09-05T16:40:50.055Z,25.9
2022-09-05T16:42:50.905Z,25.8
2022-09-05T16:44:50.889Z,25.8
2022-09-05T16:46:50.203Z,25.8
2022-09-05T16:48:55.716Z,25.8
2022-09-05T16:50:51.058Z,25.8
2022-09-05T16:52:56.345Z,25.7
2022-09-05T16:54:50.499Z,25.6
2022-09-05T16:56:50.696Z,25.6
2022-09-05T16:58:50.769Z,25.6
2022-09-05T17:00:50.913Z,25.6
2022-09-05T17:02:50.863Z,25.6
2022-09-05T17:05:06.408Z,25.5
2022-09-05T17:06:49.916Z,25.5
2022-09-05T17:08:50.743Z,25.4
2022-09-05T17:11:13.904Z,25.4
2022-09-05T17:12:50.503Z,25.4
2022-09-05T17:14:50.440Z,25.4
2022-09-05T17:16:51.098Z,25.4
2022-09-05T17:18:50.252Z,25.4
2022-09-05T17:20:50.410Z,25.3
2022-09-05T17:28:03.818Z,25.3
2022-09-05T17:28:36.013Z,25.2
2022-09-05T17:29:22.002Z,25.2
2022-09-05T17:30:20.760Z,25.2
2022-09-05T17:31:51.993Z,25.1
2022-09-05T17:32:50.635Z,25.0
2022-09-05T17:34:50.418Z,25.0
2022-09-05T17:36:50.872Z,25.0
2022-09-05T17:38:50.672Z,24.9
2022-09-05T17:40:50.721Z,24.8
2022-09-05T17:42:50.009Z,24.7
2022-09-05T17:44:53.611Z,24.6
2022-09-05T17:46:50.010Z,24.6
2022-09-05T17:49:20.544Z,24.5
2022-09-05T17:50:50.729Z,24.4
2022-09-05T17:52:50.260Z,24.3
2022-09-05T17:54:50.917Z,24.2
2022-09-05T17:56:50.380Z,24.2
2022-09-05T17:58:51.029Z,24.0
2022-09-05T18:00:50.467Z,23.9
2022-09-05T18:02:50.016Z,23.8
2022-09-05T18:04:50.655Z,23.8
2022-09-05T18:07:01.384Z,23.7
2022-09-05T18:08:53.457Z,23.6
2022-09-05T18:10:50.741Z,23.5
2022-09-05T18:13:32.069Z,23.4
2022-09-05T18:15:07.886Z,23.4
2022-09-05T18:17:35.735Z,23.3
2022-09-05T18:19:29.180Z,23.2
2022-09-05T18:20:50.423Z,23.0
2022-09-05T18:23:39.036Z,23.0
2022-09-05T18:24:50.441Z,23.0
2022-09-05T18:27:35.094Z,22.8
2022-09-05T18:28:49.990Z,22.7
2022-09-05T18:30:49.991Z,22.6
2022-09-05T18:33:54.809Z,22.5
2022-09-05T18:34:50.366Z,22.5
2022-09-05T18:36:50.655Z,22.4
2022-09-05T18:38:52.933Z,22.3
2022-09-05T18:40:50.111Z,22.2
2022-09-05T18:42:52.855Z,22.1
2022-09-05T18:44:50.732Z,22.1
2022-09-05T18:46:50.359Z,22.0
2022-09-05T18:49:45.017Z,21.9
2022-09-05T18:51:13.892Z,21.8
2022-09-05T18:53:12.573Z,21.8
2022-09-05T18:55:57.915Z,21.7
2022-09-05T18:57:27.072Z,21.6
2022-09-05T18:58:52.622Z,21.5
2022-09-05T19:00:51.177Z,21.4
2022-09-05T19:03:00.446Z,21.4
2022-09-05T19:04:50.784Z,21.4
2022-09-05T19:06:50.321Z,21.2
2022-09-05T19:08:50.309Z,21.1
2022-09-05T19:10:59.586Z,21.1
2022-09-05T19:12:54.111Z,21.1
2022-09-05T19:14:50.334Z,21.0
2022-09-05T19:16:51.154Z,20.9
2022-09-05T19:18:50.804Z,20.8
2022-09-05T19:20:55.956Z,20.8
2022-09-05T19:23:13.691Z,20.7
2022-09-05T19:24:50.904Z,20.6
2022-09-05T19:27:35.910Z,20.6
2022-09-05T19:34:53.174Z,20.5
2022-09-05T19:36:47.854Z,20.3
2022-09-05T19:37:00.349Z,20.5
2022-09-05T19:37:00.783Z,20.4
2022-09-05T19:37:25.734Z,20.3
2022-09-05T19:40:15.761Z,20.2
2022-09-05T19:43:56.244Z,20.2
2022-09-05T19:47:31.721Z,20.1
2022-09-05T19:47:33.331Z,20.0
2022-09-05T19:47:45.803Z,20.1
2022-09-05T19:48:49.985Z,19.9
2022-09-05T19:50:50.028Z,19.9
2022-09-05T19:52:50.023Z,19.8
2022-09-05T19:54:50.050Z,19.8
2022-09-05T19:56:50.426Z,19.7
2022-09-05T19:58:50.610Z,19.6
2022-09-05T20:01:02.691Z,19.6
2022-09-05T20:02:51.920Z,19.5
2022-09-05T20:04:53.650Z,19.5
2022-09-05T20:06:50.197Z,19.4
2022-09-05T20:08:50.239Z,19.4
2022-09-05T20:10:50.422Z,19.4
2022-09-05T20:12:50.201Z,19.3
2022-09-05T20:14:50.182Z,19.2
2022-09-05T20:16:51.050Z,19.2
2022-09-05T20:18:50.222Z,19.2
2022-09-05T20:20:51.788Z,19.1
2022-09-05T20:22:51.405Z,19.0
2022-09-05T20:24:50.567Z,19.0
2022-09-05T20:26:50.301Z,19.0
2022-09-05T20:28:55.125Z,18.9
2022-09-05T20:30:50.159Z,18.9
2022-09-05T20:32:50.291Z,18.8
2022-09-05T20:37:00.962Z,18.8
2022-09-05T20:40:05.495Z,18.8
2022-09-05T20:43:13.229Z,18.7
2022-09-05T20:43:13.838Z,18.7
2022-09-05T20:44:50.614Z,18.6
2022-09-05T20:47:37.937Z,18.6
2022-09-05T20:52:51.785Z,18.5
2022-09-05T20:54:11.123Z,18.5
2022-09-05T20:54:12.302Z,18.4
2022-09-05T20:54:52.104Z,18.4
2022-09-05T20:56:57.068Z,18.4
2022-09-05T20:58:50.193Z,18.3
2022-09-05T21:01:22.459Z,18.2
2022-09-05T21:02:50.946Z,18.2
2022-09-05T21:04:50.603Z,18.2
2022-09-05T21:06:50.070Z,18.2
2022-09-05T21:08:50.075Z,18.1
2022-09-05T21:10:56.836Z,18.1
2022-09-05T21:12:49.987Z,18.0
2022-09-05T21:14:49.980Z,18.0
2022-09-05T21:16:50.547Z,18.0
2022-09-05T21:18:50.683Z,17.9
2022-09-05T21:20:50.916Z,17.9
2022-09-05T21:22:50.895Z,17.9
2022-09-05T21:24:50.768Z,17.8
2022-09-05T21:26:50.423Z,17.8
2022-09-05T21:28:50.551Z,17.8
2022-09-05T21:30:53.049Z,17.8
2022-09-05T21:32:51.890Z,17.7
2022-09-05T21:34:50.846Z,17.7
2022-09-05T21:37:08.303Z,17.6
2022-09-05T21:38:49.964Z,17.6
2022-09-05T21:40:53.123Z,17.6
2022-09-05T21:46:07.280Z,17.5
2022-09-05T21:47:45.326Z,17.5
2022-09-05T21:47:45.955Z,17.5
2022-09-05T21:48:58.324Z,17.4
2022-09-05T21:50:50.370Z,17.4
2022-09-05T21:53:46.977Z,17.4
2022-09-05T21:57:12.879Z,17.3
2022-09-05T21:59:15.530Z,17.3
2022-09-05T21:59:34.938Z,17.2
2022-09-05T22:00:50.480Z,17.2
2022-09-05T22:02:50.893Z,17.2
2022-09-05T22:04:50.331Z,17.2
2022-09-05T22:06:50.474Z,17.1
2022-09-05T22:09:14.387Z,17.1
2022-09-05T22:10:53.214Z,17.0
2022-09-05T22:12:50.540Z,17.0
2022-09-05T22:14:50.612Z,17.0
2022-09-05T22:16:50.057Z,17.0
2022-09-05T22:18:50.496Z,17.0
2022-09-05T22:21:33.607Z,17.0
2022-09-05T22:22:57.361Z,16.9
2022-09-05T22:24:50.176Z,16.9
2022-09-05T22:27:13.097Z,16.8
2022-09-05T22:28:50.301Z,16.8
2022-09-05T22:30:50.519Z,16.8
2022-09-05T22:32:50.713Z,16.8
2022-09-05T22:34:50.008Z,16.7
2022-09-05T22:36:50.115Z,16.7
2022-09-05T22:38:50.408Z,16.6
2022-09-05T22:40:50.423Z,16.6
2022-09-05T22:42:50.457Z,16.6
2022-09-05T22:44:50.599Z,16.6
2022-09-05T22:46:50.227Z,16.6
2022-09-05T22:48:50.303Z,16.5
2022-09-05T22:50:50.248Z,16.5
2022-09-05T22:52:50.145Z,16.5
2022-09-05T22:54:50.137Z,16.4
2022-09-05T22:56:50.844Z,16.4
2022-09-05T22:58:49.917Z,16.4
2022-09-05T23:00:50.870Z,16.4
2022-09-05T23:02:53.254Z,16.4
2022-09-05T23:04:50.831Z,16.3
2022-09-05T23:06:50.180Z,16.3
2022-09-05T23:08:50.258Z,16.2
2022-09-05T23:10:50.302Z,16.2
2022-09-05T23:12:50.507Z,16.2
2022-09-05T23:14:50.764Z,16.2
2022-09-05T23:16:50.267Z,16.2
2022-09-05T23:18:50.306Z,16.1
2022-09-05T23:20:50.438Z,16.1
2022-09-05T23:22:50.294Z,16.1
2022-09-05T23:24:50.498Z,16.1
2022-09-05T23:26:50.875Z,16.1
2022-09-05T23:28:49.951Z,16.0
2022-09-05T23:30:50.156Z,16.0
2022-09-05T23:32:50.150Z,16.0
2022-09-05T23:34:50.616Z,16.0
2022-09-05T23:36:49.993Z,16.0
2022-09-05T23:38:50.001Z,15.9
2022-09-05T23:40:50.876Z,15.9
2022-09-05T23:42:50.900Z,15.9
2022-09-05T23:44:50.883Z,15.9
2022-09-05T23:46:50.036Z,15.9
2022-09-05T23:48:49.992Z,15.9
2022-09-05T23:50:49.985Z,15.9
2022-09-05T23:52:50.233Z,15.9
2022-09-05T23:54:50.133Z,15.9
2022-09-05T23:56:50.634Z,15.9
2022-09-05T23:58:50.630Z,15.8
